Time,TemperatureF,DewpointF,PressureIn,WindDirection,WindDirectionDegrees,WindSpeedMPH,WindSpeedGustMPH,Humidity,HourlyPrecipIn,Conditions,Clouds,dailyrainin,SoftwareType,DateUTC
2013-01-08 00:04:00,13.0,-53.0,30.19,SE,135,1.0,1.0,3,-99.99,,,-99.99,,2013-01-08 05:04:00,
2013-01-08 00:12:00,13.0,-53.0,30.19,SE,135,1.0,1.0,3,-99.99,,,-99.99,,2013-01-08 05:12:00,
2013-01-08 00:22:00,13.0,-53.0,30.19,SE,135,1.0,1.0,3,-99.99,,,-99.99,,2013-01-08 05:22:00,
2013-01-08 00:33:00,13.0,-53.0,30.19,SE,135,1.0,1.0,3,-99.99,,,-99.99,,2013-01-08 05:33:00,
2013-01-08 00:53:00,13.0,-70.0,30.17,NW,315,0.0,1.0,1,-99.99,,,-99.99,,2013-01-08 05:53:00,
2013-01-08 01:03:00,16.0,-68.0,30.19,South,180,0.0,4.0,1,-99.99,,,-99.99,,2013-01-08 06:03:00,
2013-01-08 01:12:00,16.0,-68.0,30.19,South,180,0.0,4.0,1,-99.99,,,-99.99,,2013-01-08 06:12:00,
2013-01-08 01:22:00,18.0,-31.0,30.18,SW,225,0.0,1.0,9,-99.99,,,-99.99,,2013-01-08 06:22:00,
2013-01-08 01:33:00,18.0,-31.0,30.18,SW,225,0.0,1.0,9,-99.99,,,-99.99,,2013-01-08 06:33:00,
2013-01-08 01:42:00,18.0,-31.0,30.18,SW,225,0.0,1.0,9,-99.99,,,-99.99,,2013-01-08 06:42:00,
2013-01-08 02:52:00,22.0,-64.0,30.19,SW,225,1.0,2.0,1,-99.99,,,-99.99,,2013-01-08 07:52:00,
2013-01-08 03:02:00,22.0,-64.0,30.19,SW,225,1.0,2.0,1,-99.99,,,-99.99,,2013-01-08 08:02:00,
2013-01-08 03:12:00,22.0,-64.0,30.19,SW,225,1.0,2.0,1,-99.99,,,-99.99,,2013-01-08 08:12:00,
2013-01-08 03:22:00,24.0,-63.0,30.16,SSE,166,3.0,4.0,1,-99.99,,,-99.99,,2013-01-08 08:22:00,
2013-01-08 03:32:00,24.0,-63.0,30.16,SSE,166,3.0,4.0,1,-99.99,,,-99.99,,2013-01-08 08:32:00,
2013-01-08 03:42:00,24.0,-63.0,30.16,SSE,166,3.0,4.0,1,-99.99,,,-99.99,,2013-01-08 08:42:00,
2013-01-08 04:53:00,26.0,26.0,30.18,East,100,1.0,3.0,100,-99.99,,,-99.99,,2013-01-08 09:53:00,
2013-01-08 05:03:00,26.0,26.0,30.20,SSE,162,1.0,4.0,99,-99.99,,,-99.99,,2013-01-08 10:03:00,
2013-01-08 05:12:00,26.0,26.0,30.20,SSE,162,1.0,4.0,99,-99.99,,,-99.99,,2013-01-08 10:12:00,
2013-01-08 05:22:00,26.0,26.0,30.20,SSE,162,1.0,4.0,99,-99.99,,,-99.99,,2013-01-08 10:22:00,
2013-01-08 05:33:00,26.0,26.0,30.20,SSE,162,1.0,4.0,99,-99.99,,,-99.99,,2013-01-08 10:33:00,
2013-01-08 05:42:00,26.0,26.0,30.20,SSE,162,1.0,4.0,99,-99.99,,,-99.99,,2013-01-08 10:42:00,
2013-01-08 05:53:00,25.0,24.0,30.16,SE,135,0.0,3.0,94,-99.99,,,-99.99,,2013-01-08 10:53:00,
2013-01-08 06:02:00,25.0,24.0,30.16,SE,135,0.0,3.0,94,-99.99,,,-99.99,,2013-01-08 11:02:00,
2013-01-08 06:12:00,25.0,24.0,30.16,SE,135,0.0,3.0,94,-99.99,,,-99.99,,2013-01-08 11:12:00,
2013-01-08 06:22:00,25.0,24.0,30.16,SE,135,0.0,3.0,94,-99.99,,,-99.99,,2013-01-08 11:22:00,
2013-01-08 07:03:00,24.0,-37.0,30.19,SE,137,4.0,4.0,5,-99.99,,,-99.99,,2013-01-08 12:03:00,
2013-01-08 07:12:00,24.0,-37.0,30.19,SE,137,4.0,4.0,5,-99.99,,,-99.99,,2013-01-08 12:12:00,
2013-01-08 07:22:00,24.0,-37.0,30.19,SE,137,4.0,4.0,5,-99.99,,,-99.99,,2013-01-08 12:22:00,
2013-01-08 07:33:00,24.0,-37.0,30.19,SE,137,4.0,4.0,5,-99.99,,,-99.99,,2013-01-08 12:33:00,
2013-01-08 07:42:00,24.0,-37.0,30.19,SE,137,4.0,4.0,5,-99.99,,,-99.99,,2013-01-08 12:42:00,
2013-01-08 07:53:00,25.0,-40.0,30.21,SE,135,1.0,5.0,4,-99.99,,,-99.99,,2013-01-08 12:53:00,
2013-01-08 08:03:00,25.0,-40.0,30.21,SE,135,1.0,5.0,4,-99.99,,,-99.99,,2013-01-08 13:03:00,
2013-01-08 08:13:00,25.0,-40.0,30.21,SE,135,1.0,5.0,4,-99.99,,,-99.99,,2013-01-08 13:13:00,
2013-01-08 08:22:00,25.0,-40.0,30.21,SE,135,1.0,5.0,4,-99.99,,,-99.99,,2013-01-08 13:22:00,
2013-01-08 08:53:00,27.0,-61.0,30.24,SSE,166,3.0,3.0,1,-99.99,,,-99.99,,2013-01-08 13:53:00,
2013-01-08 09:03:00,27.0,-61.0,30.24,SSE,166,3.0,3.0,1,-99.99,,,-99.99,,2013-01-08 14:03:00,
2013-01-08 09:13:00,27.0,-61.0,30.24,SSE,166,3.0,3.0,1,-99.99,,,-99.99,,2013-01-08 14:13:00,
2013-01-08 09:23:00,27.0,-61.0,30.24,SSE,166,3.0,3.0,1,-99.99,,,-99.99,,2013-01-08 14:23:00,
2013-01-08 11:34:00,39.0,32.0,30.22,South,173,7.0,7.0,77,-99.99,,,-99.99,,2013-01-08 16:34:00,
2013-01-08 11:43:00,39.0,32.0,30.22,South,173,7.0,7.0,77,-99.99,,,-99.99,,2013-01-08 16:43:00,
2013-01-08 11:53:00,39.0,32.0,30.22,South,173,7.0,7.0,77,-99.99,,,-99.99,,2013-01-08 16:53:00,
2013-01-08 12:03:00,39.0,32.0,30.22,South,173,7.0,7.0,77,-99.99,,,-99.99,,2013-01-08 17:03:00,
2013-01-08 13:04:00,44.0,32.0,30.20,SE,141,2.0,4.0,62,-99.99,,,-99.99,,2013-01-08 18:04:00,
2013-01-08 13:13:00,44.0,32.0,30.20,SE,141,2.0,4.0,62,-99.99,,,-99.99,,2013-01-08 18:13:00,
2013-01-08 13:23:00,44.0,32.0,30.20,SE,141,2.0,4.0,62,-99.99,,,-99.99,,2013-01-08 18:23:00,
2013-01-08 13:33:00,44.0,32.0,30.20,SE,141,2.0,4.0,62,-99.99,,,-99.99,,2013-01-08 18:33:00,
2013-01-08 13:43:00,44.0,32.0,30.20,SE,141,2.0,4.0,62,-99.99,,,-99.99,,2013-01-08 18:43:00,
2013-01-08 19:33:00,26.0,26.0,30.23,SE,135,0.0,0.0,98,-99.99,,,-99.99,,2013-01-09 00:33:00,
2013-01-08 19:43:00,26.0,26.0,30.23,SE,135,0.0,0.0,98,-99.99,,,-99.99,,2013-01-09 00:43:00,
2013-01-08 19:53:00,26.0,24.0,30.25,SE,135,0.0,0.0,93,-99.99,,,-99.99,,2013-01-09 00:53:00,
2013-01-08 20:02:00,26.0,24.0,30.25,SE,135,0.0,0.0,93,-99.99,,,-99.99,,2013-01-09 01:02:00,
2013-01-08 20:12:00,26.0,24.0,30.25,SE,135,0.0,0.0,93,-99.99,,,-99.99,,2013-01-09 01:12:00,
2013-01-08 20:22:00,26.0,24.0,30.25,SE,135,0.0,0.0,93,-99.99,,,-99.99,,2013-01-09 01:22:00,
2013-01-08 20:53:00,25.0,24.0,30.25,SE,135,0.0,0.0,97,-99.99,,,-99.99,,2013-01-09 01:53:00,
2013-01-08 21:02:00,25.0,24.0,30.25,SE,135,0.0,0.0,97,-99.99,,,-99.99,,2013-01-09 02:02:00,
2013-01-08 21:12:00,25.0,24.0,30.25,SE,135,0.0,0.0,97,-99.99,,,-99.99,,2013-01-09 02:12:00,
2013-01-08 21:22:00,25.0,24.0,30.25,SE,135,0.0,0.0,97,-99.99,,,-99.99,,2013-01-09 02:22:00,
2013-01-08 21:33:00,26.0,26.0,30.27,SE,135,0.0,0.0,100,-99.99,,,-99.99,,2013-01-09 02:33:00,
2013-01-08 21:43:00,26.0,26.0,30.27,SE,135,0.0,0.0,100,-99.99,,,-99.99,,2013-01-09 02:43:00,
2013-01-08 21:53:00,26.0,26.0,30.27,SE,135,0.0,0.0,100,-99.99,,,-99.99,,2013-01-09 02:53:00,
2013-01-08 22:03:00,26.0,24.0,30.24,SE,135,0.0,0.0,92,-99.99,,,-99.99,,2013-01-09 03:03:00,
2013-01-08 22:12:00,26.0,24.0,30.24,SE,135,0.0,0.0,92,-99.99,,,-99.99,,2013-01-09 03:12:00,
2013-01-08 22:22:00,26.0,24.0,30.24,SE,135,0.0,0.0,92,-99.99,,,-99.99,,2013-01-09 03:22:00,
2013-01-08 22:53:00,25.0,-62.0,30.25,SE,135,0.0,0.0,1,-99.99,,,-99.99,,2013-01-09 03:53:00,
2013-01-08 23:02:00,25.0,-62.0,30.25,SE,135,0.0,0.0,1,-99.99,,,-99.99,,2013-01-09 04:02:00,
2013-01-08 23:12:00,25.0,-62.0,30.25,SE,135,0.0,0.0,1,-99.99,,,-99.99,,2013-01-09 04:12:00,
2013-01-08 23:22:00,25.0,-62.0,30.25,SE,135,0.0,0.0,1,-99.99,,,-99.99,,2013-01-09 04:22:00,